sensor_id;sensor_type;location;lat;lon;timestamp;P1;durP1;ratioP1;P2;durP2;ratioP2
3549;SDS011;45572;48.804;8.330;2023-04-25T00:00:22;6.80;;;4.00;;
3549;SDS011;45572;48.804;8.330;2023-04-25T00:02:51;7.47;;;4.30;;
3549;SDS011;45572;48.804;8.330;2023-04-25T00:05:19;8.75;;;5.53;;
3549;SDS011;45572;48.804;8.330;2023-04-25T00:07:49;7.95;;;4.18;;
3549;SDS011;45572;48.804;8.330;2023-04-25T00:10:17;7.07;;;4.68;;
3549;SDS011;45572;48.804;8.330;2023-04-25T00:12:45;11.85;;;4.93;;
3549;SDS011;45572;48.804;8.330;2023-04-25T00:15:13;5.88;;;3.75;;
3549;SDS011;45572;48.804;8.330;2023-04-25T00:17:42;8.63;;;4.50;;
3549;SDS011;45572;48.804;8.330;2023-04-25T00:20:13;4.93;;;3.78;;
3549;SDS011;45572;48.804;8.330;2023-04-25T00:22:41;7.72;;;4.00;;
3549;SDS011;45572;48.804;8.330;2023-04-25T00:25:09;5.95;;;3.70;;
3549;SDS011;45572;48.804;8.330;2023-04-25T00:27:37;6.45;;;3.70;;
3549;SDS011;45572;48.804;8.330;2023-04-25T00:30:05;4.88;;;3.65;;
3549;SDS011;45572;48.804;8.330;2023-04-25T00:32:33;5.78;;;3.70;;
3549;SDS011;45572;48.804;8.330;2023-04-25T00:35:01;6.03;;;4.63;;
3549;SDS011;45572;48.804;8.330;2023-04-25T00:37:31;9.55;;;4.68;;
3549;SDS011;45572;48.804;8.330;2023-04-25T00:39:59;8.27;;;4.10;;
3549;SDS011;45572;48.804;8.330;2023-04-25T00:42:27;6.30;;;4.55;;
3549;SDS011;45572;48.804;8.330;2023-04-25T00:44:56;10.93;;;4.78;;
3549;SDS011;45572;48.804;8.330;2023-04-25T00:47:25;7.70;;;3.85;;
3549;SDS011;45572;48.804;8.330;2023-04-25T00:49:53;10.43;;;4.10;;
3549;SDS011;45572;48.804;8.330;2023-04-25T00:52:21;5.50;;;3.83;;
3549;SDS011;45572;48.804;8.330;2023-04-25T00:54:50;7.75;;;4.07;;
3549;SDS011;45572;48.804;8.330;2023-04-25T00:57:18;6.88;;;4.47;;
3549;SDS011;45572;48.804;8.330;2023-04-25T00:59:46;7.30;;;3.90;;
3549;SDS011;45572;48.804;8.330;2023-04-25T01:02:13;7.82;;;4.45;;
3549;SDS011;45572;48.804;8.330;2023-04-25T01:04:41;4.53;;;3.17;;
3549;SDS011;45572;48.804;8.330;2023-04-25T01:07:09;5.28;;;3.78;;
3549;SDS011;45572;48.804;8.330;2023-04-25T01:09:37;8.60;;;4.32;;
3549;SDS011;45572;48.804;8.330;2023-04-25T01:12:06;8.10;;;4.25;;
3549;SDS011;45572;48.804;8.330;2023-04-25T01:14:35;5.75;;;3.90;;
3549;SDS011;45572;48.804;8.330;2023-04-25T01:17:04;6.30;;;4.20;;
3549;SDS011;45572;48.804;8.330;2023-04-25T01:19:33;6.70;;;4.07;;
3549;SDS011;45572;48.804;8.330;2023-04-25T01:22:03;10.75;;;4.57;;
3549;SDS011;45572;48.804;8.330;2023-04-25T01:24:31;10.35;;;4.50;;
3549;SDS011;45572;48.804;8.330;2023-04-25T01:26:59;7.18;;;4.05;;
3549;SDS011;45572;48.804;8.330;2023-04-25T01:29:28;6.50;;;3.80;;
3549;SDS011;45572;48.804;8.330;2023-04-25T01:31:57;6.60;;;4.72;;
3549;SDS011;45572;48.804;8.330;2023-04-25T01:34:26;9.43;;;5.00;;
3549;SDS011;45572;48.804;8.330;2023-04-25T01:37:05;3.72;;;3.13;;
3549;SDS011;45572;48.804;8.330;2023-04-25T01:39:33;9.07;;;4.22;;
3549;SDS011;45572;48.804;8.330;2023-04-25T01:42:01;4.80;;;3.80;;
3549;SDS011;45572;48.804;8.330;2023-04-25T01:44:29;9.40;;;5.30;;
3549;SDS011;45572;48.804;8.330;2023-04-25T01:46:57;5.85;;;3.92;;
3549;SDS011;45572;48.804;8.330;2023-04-25T01:49:25;6.18;;;4.13;;
3549;SDS011;45572;48.804;8.330;2023-04-25T01:51:53;5.18;;;3.90;;
3549;SDS011;45572;48.804;8.330;2023-04-25T01:54:22;8.70;;;5.45;;
3549;SDS011;45572;48.804;8.330;2023-04-25T01:56:50;7.95;;;4.63;;
3549;SDS011;45572;48.804;8.330;2023-04-25T01:59:20;6.30;;;4.40;;
3549;SDS011;45572;48.804;8.330;2023-04-25T02:02:08;8.32;;;5.03;;
3549;SDS011;45572;48.804;8.330;2023-04-25T02:04:36;8.48;;;4.90;;
3549;SDS011;45572;48.804;8.330;2023-04-25T02:07:04;8.35;;;5.45;;
3549;SDS011;45572;48.804;8.330;2023-04-25T02:09:43;6.10;;;4.00;;
3549;SDS011;45572;48.804;8.330;2023-04-25T02:12:11;11.43;;;5.60;;
3549;SDS011;45572;48.804;8.330;2023-04-25T02:14:59;8.35;;;5.75;;
3549;SDS011;45572;48.804;8.330;2023-04-25T02:17:47;10.98;;;4.75;;
3549;SDS011;45572;48.804;8.330;2023-04-25T02:20:15;6.85;;;4.57;;
3549;SDS011;45572;48.804;8.330;2023-04-25T02:22:43;8.45;;;4.25;;
3549;SDS011;45572;48.804;8.330;2023-04-25T02:25:12;9.32;;;4.20;;
3549;SDS011;45572;48.804;8.330;2023-04-25T02:27:42;6.82;;;4.82;;
3549;SDS011;45572;48.804;8.330;2023-04-25T02:30:10;7.45;;;4.80;;
3549;SDS011;45572;48.804;8.330;2023-04-25T02:32:41;6.03;;;4.60;;
3549;SDS011;45572;48.804;8.330;2023-04-25T02:35:09;5.75;;;4.40;;
3549;SDS011;45572;48.804;8.330;2023-04-25T02:37:39;5.95;;;3.78;;
3549;SDS011;45572;48.804;8.330;2023-04-25T02:40:07;6.38;;;4.15;;
3549;SDS011;45572;48.804;8.330;2023-04-25T02:42:37;6.40;;;4.60;;
3549;SDS011;45572;48.804;8.330;2023-04-25T02:45:05;6.68;;;3.97;;
3549;SDS011;45572;48.804;8.330;2023-04-25T02:47:33;4.90;;;4.40;;
3549;SDS011;45572;48.804;8.330;2023-04-25T02:50:01;3.95;;;3.55;;
3549;SDS011;45572;48.804;8.330;2023-04-25T02:52:29;5.03;;;3.78;;
3549;SDS011;45572;48.804;8.330;2023-04-25T02:55:07;7.85;;;4.72;;
3549;SDS011;45572;48.804;8.330;2023-04-25T02:57:38;6.88;;;4.65;;
3549;SDS011;45572;48.804;8.330;2023-04-25T03:00:09;7.32;;;4.28;;
3549;SDS011;45572;48.804;8.330;2023-04-25T03:02:41;7.38;;;4.85;;
3549;SDS011;45572;48.804;8.330;2023-04-25T03:05:09;7.63;;;4.43;;
3549;SDS011;45572;48.804;8.330;2023-04-25T03:07:37;8.90;;;3.92;;
3549;SDS011;45572;48.804;8.330;2023-04-25T03:10:09;5.78;;;4.22;;
3549;SDS011;45572;48.804;8.330;2023-04-25T03:12:39;9.65;;;4.70;;
3549;SDS011;45572;48.804;8.330;2023-04-25T03:15:06;7.30;;;4.32;;
3549;SDS011;45572;48.804;8.330;2023-04-25T03:17:35;4.43;;;3.80;;
3549;SDS011;45572;48.804;8.330;2023-04-25T03:20:03;4.88;;;3.92;;
3549;SDS011;45572;48.804;8.330;2023-04-25T03:22:34;9.95;;;3.42;;
3549;SDS011;45572;48.804;8.330;2023-04-25T03:25:02;5.13;;;4.13;;
3549;SDS011;45572;48.804;8.330;2023-04-25T03:27:30;5.10;;;4.10;;
3549;SDS011;45572;48.804;8.330;2023-04-25T03:29:59;6.40;;;4.03;;
3549;SDS011;45572;48.804;8.330;2023-04-25T03:32:27;4.53;;;3.80;;
3549;SDS011;45572;48.804;8.330;2023-04-25T03:34:55;5.50;;;3.83;;
3549;SDS011;45572;48.804;8.330;2023-04-25T03:37:25;7.47;;;4.18;;
3549;SDS011;45572;48.804;8.330;2023-04-25T03:39:53;5.80;;;4.38;;
3549;SDS011;45572;48.804;8.330;2023-04-25T03:42:25;5.70;;;4.20;;
3549;SDS011;45572;48.804;8.330;2023-04-25T03:44:52;4.18;;;3.63;;
3549;SDS011;45572;48.804;8.330;2023-04-25T03:47:22;6.28;;;4.07;;
3549;SDS011;45572;48.804;8.330;2023-04-25T03:49:50;5.50;;;3.97;;
3549;SDS011;45572;48.804;8.330;2023-04-25T03:52:20;5.95;;;3.72;;
3549;SDS011;45572;48.804;8.330;2023-04-25T03:54:49;7.40;;;3.50;;
3549;SDS011;45572;48.804;8.330;2023-04-25T03:57:19;8.00;;;4.97;;
3549;SDS011;45572;48.804;8.330;2023-04-25T03:59:46;8.60;;;4.90;;
3549;SDS011;45572;48.804;8.330;2023-04-25T04:02:15;9.80;;;4.85;;
3549;SDS011;45572;48.804;8.330;2023-04-25T04:04:44;8.82;;;4.60;;
3549;SDS011;45572;48.804;8.330;2023-04-25T04:07:13;10.35;;;4.45;;
3549;SDS011;45572;48.804;8.330;2023-04-25T04:09:44;8.30;;;5.07;;
3549;SDS011;45572;48.804;8.330;2023-04-25T04:12:18;6.53;;;4.68;;
3549;SDS011;45572;48.804;8.330;2023-04-25T04:14:46;5.65;;;3.80;;
3549;SDS011;45572;48.804;8.330;2023-04-25T04:17:14;5.80;;;4.43;;
3549;SDS011;45572;48.804;8.330;2023-04-25T04:19:42;6.45;;;5.10;;
3549;SDS011;45572;48.804;8.330;2023-04-25T04:22:16;8.30;;;5.40;;
3549;SDS011;45572;48.804;8.330;2023-04-25T04:24:45;6.55;;;4.63;;
3549;SDS011;45572;48.804;8.330;2023-04-25T04:27:19;6.25;;;4.55;;
3549;SDS011;45572;48.804;8.330;2023-04-25T04:30:08;7.90;;;4.70;;
3549;SDS011;45572;48.804;8.330;2023-04-25T04:32:47;5.18;;;4.07;;
3549;SDS011;45572;48.804;8.330;2023-04-25T04:35:19;11.00;;;4.68;;
3549;SDS011;45572;48.804;8.330;2023-04-25T04:37:50;8.65;;;4.90;;
3549;SDS011;45572;48.804;8.330;2023-04-25T04:40:19;8.65;;;5.03;;
3549;SDS011;45572;48.804;8.330;2023-04-25T04:42:59;7.22;;;5.55;;
3549;SDS011;45572;48.804;8.330;2023-04-25T04:45:48;6.10;;;4.20;;
3549;SDS011;45572;48.804;8.330;2023-04-25T04:48:30;5.90;;;3.80;;
3549;SDS011;45572;48.804;8.330;2023-04-25T04:51:18;8.20;;;5.45;;
3549;SDS011;45572;48.804;8.330;2023-04-25T04:53:59;16.45;;;4.95;;
3549;SDS011;45572;48.804;8.330;2023-04-25T04:56:45;6.25;;;5.28;;
3549;SDS011;45572;48.804;8.330;2023-04-25T04:59:26;9.57;;;5.13;;
3549;SDS011;45572;48.804;8.330;2023-04-25T05:02:14;9.45;;;5.05;;
3549;SDS011;45572;48.804;8.330;2023-04-25T05:05:01;8.00;;;4.60;;
3549;SDS011;45572;48.804;8.330;2023-04-25T05:07:47;8.20;;;5.65;;
3549;SDS011;45572;48.804;8.330;2023-04-25T05:10:26;7.70;;;5.22;;
3549;SDS011;45572;48.804;8.330;2023-04-25T05:13:02;15.48;;;6.00;;
3549;SDS011;45572;48.804;8.330;2023-04-25T05:15:50;8.05;;;5.13;;
3549;SDS011;45572;48.804;8.330;2023-04-25T05:18:29;6.68;;;5.40;;
3549;SDS011;45572;48.804;8.330;2023-04-25T05:21:05;7.40;;;5.22;;
3549;SDS011;45572;48.804;8.330;2023-04-25T05:23:47;8.82;;;6.22;;
3549;SDS011;45572;48.804;8.330;2023-04-25T05:26:36;8.73;;;5.70;;
3549;SDS011;45572;48.804;8.330;2023-04-25T05:29:21;11.00;;;4.70;;
3549;SDS011;45572;48.804;8.330;2023-04-25T05:32:12;8.68;;;5.82;;
3549;SDS011;45572;48.804;8.330;2023-04-25T05:34:41;7.32;;;4.75;;
3549;SDS011;45572;48.804;8.330;2023-04-25T05:37:19;10.13;;;4.75;;
3549;SDS011;45572;48.804;8.330;2023-04-25T05:40:02;6.40;;;4.45;;
3549;SDS011;45572;48.804;8.330;2023-04-25T05:42:54;9.05;;;4.70;;
3549;SDS011;45572;48.804;8.330;2023-04-25T05:45:34;6.43;;;5.18;;
3549;SDS011;45572;48.804;8.330;2023-04-25T05:48:09;7.25;;;5.32;;
3549;SDS011;45572;48.804;8.330;2023-04-25T05:50:43;8.23;;;5.00;;
3549;SDS011;45572;48.804;8.330;2023-04-25T05:53:21;7.97;;;6.00;;
3549;SDS011;45572;48.804;8.330;2023-04-25T05:56:00;7.88;;;5.75;;
3549;SDS011;45572;48.804;8.330;2023-04-25T05:58:28;13.32;;;6.60;;
3549;SDS011;45572;48.804;8.330;2023-04-25T06:00:58;12.55;;;7.30;;
3549;SDS011;45572;48.804;8.330;2023-04-25T06:03:26;9.60;;;6.53;;
3549;SDS011;45572;48.804;8.330;2023-04-25T06:05:56;9.18;;;6.90;;
3549;SDS011;45572;48.804;8.330;2023-04-25T06:08:25;7.97;;;6.05;;
3549;SDS011;45572;48.804;8.330;2023-04-25T06:10:52;10.82;;;6.35;;
3549;SDS011;45572;48.804;8.330;2023-04-25T06:13:23;9.40;;;6.45;;
3549;SDS011;45572;48.804;8.330;2023-04-25T06:15:51;7.03;;;5.05;;
3549;SDS011;45572;48.804;8.330;2023-04-25T06:18:19;7.75;;;6.00;;
3549;SDS011;45572;48.804;8.330;2023-04-25T06:20:48;14.57;;;6.07;;
3549;SDS011;45572;48.804;8.330;2023-04-25T06:23:17;10.07;;;5.30;;
3549;SDS011;45572;48.804;8.330;2023-04-25T06:25:50;8.75;;;5.50;;
3549;SDS011;45572;48.804;8.330;2023-04-25T06:28:19;8.88;;;6.55;;
3549;SDS011;45572;48.804;8.330;2023-04-25T06:30:49;7.03;;;5.32;;
3549;SDS011;45572;48.804;8.330;2023-04-25T06:33:19;6.35;;;4.50;;
3549;SDS011;45572;48.804;8.330;2023-04-25T06:35:48;6.10;;;5.13;;
3549;SDS011;45572;48.804;8.330;2023-04-25T06:38:20;7.15;;;5.13;;
3549;SDS011;45572;48.804;8.330;2023-04-25T06:40:50;7.90;;;4.65;;
3549;SDS011;45572;48.804;8.330;2023-04-25T06:43:18;5.60;;;3.53;;
3549;SDS011;45572;48.804;8.330;2023-04-25T06:46:02;4.65;;;4.13;;
3549;SDS011;45572;48.804;8.330;2023-04-25T06:48:40;4.80;;;4.05;;
3549;SDS011;45572;48.804;8.330;2023-04-25T06:51:08;6.40;;;3.83;;
3549;SDS011;45572;48.804;8.330;2023-04-25T06:53:37;7.25;;;4.40;;
3549;SDS011;45572;48.804;8.330;2023-04-25T06:56:09;3.75;;;3.35;;
3549;SDS011;45572;48.804;8.330;2023-04-25T06:58:59;4.10;;;3.45;;
3549;SDS011;45572;48.804;8.330;2023-04-25T07:01:33;5.85;;;3.65;;
3549;SDS011;45572;48.804;8.330;2023-04-25T07:04:04;6.53;;;3.70;;
3549;SDS011;45572;48.804;8.330;2023-04-25T07:06:39;8.13;;;3.28;;
3549;SDS011;45572;48.804;8.330;2023-04-25T07:09:10;5.15;;;2.83;;
3549;SDS011;45572;48.804;8.330;2023-04-25T07:11:41;5.05;;;3.40;;
3549;SDS011;45572;48.804;8.330;2023-04-25T07:14:10;3.63;;;2.97;;
3549;SDS011;45572;48.804;8.330;2023-04-25T07:16:40;4.80;;;2.70;;
3549;SDS011;45572;48.804;8.330;2023-04-25T07:19:09;4.00;;;3.13;;
3549;SDS011;45572;48.804;8.330;2023-04-25T07:21:37;4.03;;;3.05;;
3549;SDS011;45572;48.804;8.330;2023-04-25T07:24:05;3.03;;;2.28;;
3549;SDS011;45572;48.804;8.330;2023-04-25T07:26:38;2.97;;;2.65;;
3549;SDS011;45572;48.804;8.330;2023-04-25T07:29:23;3.85;;;2.60;;
3549;SDS011;45572;48.804;8.330;2023-04-25T07:31:53;4.05;;;2.40;;
3549;SDS011;45572;48.804;8.330;2023-04-25T07:34:21;5.78;;;3.20;;
3549;SDS011;45572;48.804;8.330;2023-04-25T07:36:49;6.95;;;4.00;;
3549;SDS011;45572;48.804;8.330;2023-04-25T07:39:18;4.03;;;3.63;;
3549;SDS011;45572;48.804;8.330;2023-04-25T07:41:45;7.38;;;5.85;;
3549;SDS011;45572;48.804;8.330;2023-04-25T07:44:20;4.93;;;3.50;;
3549;SDS011;45572;48.804;8.330;2023-04-25T07:46:48;6.47;;;4.32;;
3549;SDS011;45572;48.804;8.330;2023-04-25T07:49:18;5.75;;;4.47;;
3549;SDS011;45572;48.804;8.330;2023-04-25T07:51:46;9.40;;;4.53;;
3549;SDS011;45572;48.804;8.330;2023-04-25T07:54:16;8.70;;;4.65;;
3549;SDS011;45572;48.804;8.330;2023-04-25T07:56:50;7.57;;;4.88;;
3549;SDS011;45572;48.804;8.330;2023-04-25T07:59:24;9.32;;;6.15;;
3549;SDS011;45572;48.804;8.330;2023-04-25T08:01:56;11.20;;;5.88;;
3549;SDS011;45572;48.804;8.330;2023-04-25T08:04:25;10.50;;;6.07;;
3549;SDS011;45572;48.804;8.330;2023-04-25T08:06:59;9.65;;;6.75;;
3549;SDS011;45572;48.804;8.330;2023-04-25T08:09:30;13.18;;;7.20;;
3549;SDS011;45572;48.804;8.330;2023-04-25T08:12:03;8.55;;;6.35;;
3549;SDS011;45572;48.804;8.330;2023-04-25T08:14:32;10.60;;;5.85;;
3549;SDS011;45572;48.804;8.330;2023-04-25T08:17:04;12.05;;;6.35;;
3549;SDS011;45572;48.804;8.330;2023-04-25T08:19:38;6.65;;;4.45;;
3549;SDS011;45572;48.804;8.330;2023-04-25T08:22:16;10.63;;;4.05;;
3549;SDS011;45572;48.804;8.330;2023-04-25T08:24:52;9.23;;;3.80;;
3549;SDS011;45572;48.804;8.330;2023-04-25T08:27:21;3.58;;;2.80;;
3549;SDS011;45572;48.804;8.330;2023-04-25T08:29:50;6.60;;;3.38;;
3549;SDS011;45572;48.804;8.330;2023-04-25T08:32:19;4.30;;;3.17;;
3549;SDS011;45572;48.804;8.330;2023-04-25T08:35:08;2.92;;;2.17;;
3549;SDS011;45572;48.804;8.330;2023-04-25T08:37:37;3.53;;;2.60;;
3549;SDS011;45572;48.804;8.330;2023-04-25T08:40:11;4.38;;;2.92;;
3549;SDS011;45572;48.804;8.330;2023-04-25T08:42:53;13.40;;;4.85;;
3549;SDS011;45572;48.804;8.330;2023-04-25T08:45:22;11.13;;;3.90;;
3549;SDS011;45572;48.804;8.330;2023-04-25T08:47:53;6.47;;;3.70;;
3549;SDS011;45572;48.804;8.330;2023-04-25T08:50:26;4.40;;;3.53;;
3549;SDS011;45572;48.804;8.330;2023-04-25T08:52:57;5.63;;;4.28;;
3549;SDS011;45572;48.804;8.330;2023-04-25T08:55:30;4.88;;;2.92;;
3549;SDS011;45572;48.804;8.330;2023-04-25T08:57:59;5.15;;;3.35;;
3549;SDS011;45572;48.804;8.330;2023-04-25T09:00:31;4.93;;;2.90;;
3549;SDS011;45572;48.804;8.330;2023-04-25T09:03:01;5.80;;;2.50;;
3549;SDS011;45572;48.804;8.330;2023-04-25T09:05:34;4.28;;;2.22;;
3549;SDS011;45572;48.804;8.330;2023-04-25T09:08:03;3.42;;;2.00;;
3549;SDS011;45572;48.804;8.330;2023-04-25T09:10:33;3.75;;;2.63;;
3549;SDS011;45572;48.804;8.330;2023-04-25T09:13:05;3.85;;;3.50;;
3549;SDS011;45572;48.804;8.330;2023-04-25T09:15:55;5.80;;;3.08;;
3549;SDS011;45572;48.804;8.330;2023-04-25T09:18:44;2.65;;;1.45;;
3549;SDS011;45572;48.804;8.330;2023-04-25T09:21:17;3.80;;;2.03;;
3549;SDS011;45572;48.804;8.330;2023-04-25T09:23:51;2.35;;;2.10;;
3549;SDS011;45572;48.804;8.330;2023-04-25T09:26:22;2.53;;;2.15;;
3549;SDS011;45572;48.804;8.330;2023-04-25T09:28:56;3.30;;;1.98;;
3549;SDS011;45572;48.804;8.330;2023-04-25T09:31:39;3.58;;;2.67;;
3549;SDS011;45572;48.804;8.330;2023-04-25T09:34:10;5.15;;;2.70;;
3549;SDS011;45572;48.804;8.330;2023-04-25T09:36:55;5.20;;;3.60;;
3549;SDS011;45572;48.804;8.330;2023-04-25T09:39:43;3.85;;;2.50;;
3549;SDS011;45572;48.804;8.330;2023-04-25T09:42:13;5.18;;;2.88;;
3549;SDS011;45572;48.804;8.330;2023-04-25T09:44:43;3.60;;;2.50;;
3549;SDS011;45572;48.804;8.330;2023-04-25T09:47:12;6.97;;;4.03;;
3549;SDS011;45572;48.804;8.330;2023-04-25T09:49:45;2.58;;;1.70;;
3549;SDS011;45572;48.804;8.330;2023-04-25T09:52:15;3.53;;;2.03;;
3549;SDS011;45572;48.804;8.330;2023-04-25T09:55:06;2.97;;;2.42;;
3549;SDS011;45572;48.804;8.330;2023-04-25T09:57:35;2.40;;;1.77;;
3549;SDS011;45572;48.804;8.330;2023-04-25T10:00:08;3.67;;;1.30;;
3549;SDS011;45572;48.804;8.330;2023-04-25T10:02:57;3.45;;;1.80;;
3549;SDS011;45572;48.804;8.330;2023-04-25T10:05:50;3.05;;;1.70;;
3549;SDS011;45572;48.804;8.330;2023-04-25T10:08:18;3.15;;;2.33;;
3549;SDS011;45572;48.804;8.330;2023-04-25T10:10:48;3.88;;;2.00;;
3549;SDS011;45572;48.804;8.330;2023-04-25T10:13:18;2.78;;;2.55;;
3549;SDS011;45572;48.804;8.330;2023-04-25T10:15:48;2.75;;;2.55;;
3549;SDS011;45572;48.804;8.330;2023-04-25T10:18:21;3.03;;;2.40;;
3549;SDS011;45572;48.804;8.330;2023-04-25T10:20:49;5.65;;;2.33;;
3549;SDS011;45572;48.804;8.330;2023-04-25T10:23:19;4.43;;;3.00;;
3549;SDS011;45572;48.804;8.330;2023-04-25T10:25:47;8.70;;;6.25;;
3549;SDS011;45572;48.804;8.330;2023-04-25T10:28:16;2.40;;;1.55;;
3549;SDS011;45572;48.804;8.330;2023-04-25T10:30:56;14.50;;;10.95;;
3549;SDS011;45572;48.804;8.330;2023-04-25T10:33:34;6.13;;;5.20;;
3549;SDS011;45572;48.804;8.330;2023-04-25T10:36:08;8.10;;;2.22;;
3549;SDS011;45572;48.804;8.330;2023-04-25T10:38:36;3.20;;;2.28;;
3549;SDS011;45572;48.804;8.330;2023-04-25T10:41:05;2.10;;;1.20;;
3549;SDS011;45572;48.804;8.330;2023-04-25T10:43:36;1.40;;;1.20;;
3549;SDS011;45572;48.804;8.330;2023-04-25T10:46:12;1.52;;;1.23;;
3549;SDS011;45572;48.804;8.330;2023-04-25T10:48:46;2.58;;;1.88;;
3549;SDS011;45572;48.804;8.330;2023-04-25T10:51:16;2.20;;;1.30;;
3549;SDS011;45572;48.804;8.330;2023-04-25T10:53:45;2.58;;;1.75;;
3549;SDS011;45572;48.804;8.330;2023-04-25T10:56:18;1.77;;;1.60;;
3549;SDS011;45572;48.804;8.330;2023-04-25T10:58:47;1.95;;;1.50;;
3549;SDS011;45572;48.804;8.330;2023-04-25T11:01:19;2.28;;;1.75;;
3549;SDS011;45572;48.804;8.330;2023-04-25T11:03:49;2.80;;;1.50;;
3549;SDS011;45572;48.804;8.330;2023-04-25T11:06:27;2.53;;;1.35;;
3549;SDS011;45572;48.804;8.330;2023-04-25T11:09:03;1.70;;;1.35;;
3549;SDS011;45572;48.804;8.330;2023-04-25T11:11:39;2.05;;;1.65;;
3549;SDS011;45572;48.804;8.330;2023-04-25T11:17:21;1.35;;;0.90;;
3549;SDS011;45572;48.804;8.330;2023-04-25T11:19:54;1.70;;;1.05;;
3549;SDS011;45572;48.804;8.330;2023-04-25T11:22:26;2.20;;;2.00;;
3549;SDS011;45572;48.804;8.330;2023-04-25T11:25:04;1.38;;;1.00;;
3549;SDS011;45572;48.804;8.330;2023-04-25T11:27:37;1.30;;;1.05;;
3549;SDS011;45572;48.804;8.330;2023-04-25T11:30:10;1.70;;;1.00;;
3549;SDS011;45572;48.804;8.330;2023-04-25T11:32:39;1.45;;;1.25;;
3549;SDS011;45572;48.804;8.330;2023-04-25T11:35:09;1.40;;;1.05;;
3549;SDS011;45572;48.804;8.330;2023-04-25T11:37:43;2.45;;;1.13;;
3549;SDS011;45572;48.804;8.330;2023-04-25T11:40:11;2.30;;;1.30;;
3549;SDS011;45572;48.804;8.330;2023-04-25T11:42:43;1.40;;;1.30;;
3549;SDS011;45572;48.804;8.330;2023-04-25T11:45:12;1.42;;;1.30;;
3549;SDS011;45572;48.804;8.330;2023-04-25T11:47:41;2.00;;;1.40;;
3549;SDS011;45572;48.804;8.330;2023-04-25T11:50:11;2.08;;;1.35;;
3549;SDS011;45572;48.804;8.330;2023-04-25T11:52:41;1.70;;;1.42;;
3549;SDS011;45572;48.804;8.330;2023-04-25T11:55:12;5.10;;;1.60;;
3549;SDS011;45572;48.804;8.330;2023-04-25T11:57:41;1.33;;;1.15;;
3549;SDS011;45572;48.804;8.330;2023-04-25T12:00:11;2.00;;;1.55;;
3549;SDS011;45572;48.804;8.330;2023-04-25T12:02:44;2.25;;;1.45;;
3549;SDS011;45572;48.804;8.330;2023-04-25T12:05:16;2.40;;;1.67;;
3549;SDS011;45572;48.804;8.330;2023-04-25T12:07:46;4.07;;;2.75;;
3549;SDS011;45572;48.804;8.330;2023-04-25T12:10:16;4.82;;;3.05;;
3549;SDS011;45572;48.804;8.330;2023-04-25T12:12:49;2.50;;;2.13;;
3549;SDS011;45572;48.804;8.330;2023-04-25T12:15:22;2.60;;;2.25;;
3549;SDS011;45572;48.804;8.330;2023-04-25T12:17:53;2.22;;;2.03;;
3549;SDS011;45572;48.804;8.330;2023-04-25T12:20:24;2.85;;;2.20;;
3549;SDS011;45572;48.804;8.330;2023-04-25T12:22:54;4.78;;;3.03;;
3549;SDS011;45572;48.804;8.330;2023-04-25T12:25:36;5.07;;;3.03;;
3549;SDS011;45572;48.804;8.330;2023-04-25T12:28:12;3.10;;;2.85;;
3549;SDS011;45572;48.804;8.330;2023-04-25T12:30:55;5.25;;;3.20;;
3549;SDS011;45572;48.804;8.330;2023-04-25T12:33:27;5.50;;;3.60;;
3549;SDS011;45572;48.804;8.330;2023-04-25T12:35:57;3.78;;;2.80;;
3549;SDS011;45572;48.804;8.330;2023-04-25T12:38:30;4.85;;;2.65;;
3549;SDS011;45572;48.804;8.330;2023-04-25T12:41:02;4.50;;;2.83;;
3549;SDS011;45572;48.804;8.330;2023-04-25T12:43:30;4.22;;;3.17;;
3549;SDS011;45572;48.804;8.330;2023-04-25T12:46:01;2.90;;;2.55;;
3549;SDS011;45572;48.804;8.330;2023-04-25T12:48:31;3.90;;;2.95;;
3549;SDS011;45572;48.804;8.330;2023-04-25T12:51:00;4.38;;;2.88;;
3549;SDS011;45572;48.804;8.330;2023-04-25T12:53:28;5.60;;;3.50;;
3549;SDS011;45572;48.804;8.330;2023-04-25T12:56:02;8.52;;;4.00;;
3549;SDS011;45572;48.804;8.330;2023-04-25T12:58:30;6.20;;;3.85;;
3549;SDS011;45572;48.804;8.330;2023-04-25T13:00:59;5.55;;;3.65;;
3549;SDS011;45572;48.804;8.330;2023-04-25T13:03:27;6.35;;;3.58;;
3549;SDS011;45572;48.804;8.330;2023-04-25T13:05:55;6.03;;;4.13;;
3549;SDS011;45572;48.804;8.330;2023-04-25T13:08:24;4.50;;;3.28;;
3549;SDS011;45572;48.804;8.330;2023-04-25T13:10:52;5.30;;;3.83;;
3549;SDS011;45572;48.804;8.330;2023-04-25T13:13:20;4.43;;;3.95;;
3549;SDS011;45572;48.804;8.330;2023-04-25T13:15:48;8.00;;;7.18;;
3549;SDS011;45572;48.804;8.330;2023-04-25T13:18:16;7.72;;;5.95;;
3549;SDS011;45572;48.804;8.330;2023-04-25T13:20:44;7.50;;;5.07;;
3549;SDS011;45572;48.804;8.330;2023-04-25T13:23:12;6.45;;;5.05;;
3549;SDS011;45572;48.804;8.330;2023-04-25T13:25:41;7.20;;;5.80;;
3549;SDS011;45572;48.804;8.330;2023-04-25T13:28:09;8.75;;;6.68;;
3549;SDS011;45572;48.804;8.330;2023-04-25T13:30:36;7.05;;;5.28;;
3549;SDS011;45572;48.804;8.330;2023-04-25T13:33:04;10.75;;;6.07;;
3549;SDS011;45572;48.804;8.330;2023-04-25T13:35:33;7.53;;;6.05;;
3549;SDS011;45572;48.804;8.330;2023-04-25T13:38:02;14.27;;;7.15;;
3549;SDS011;45572;48.804;8.330;2023-04-25T13:40:30;10.75;;;5.82;;
3549;SDS011;45572;48.804;8.330;2023-04-25T13:43:02;9.60;;;5.38;;
3549;SDS011;45572;48.804;8.330;2023-04-25T13:45:33;12.77;;;6.40;;
3549;SDS011;45572;48.804;8.330;2023-04-25T13:48:02;9.30;;;6.00;;
3549;SDS011;45572;48.804;8.330;2023-04-25T13:50:30;7.85;;;5.32;;
3549;SDS011;45572;48.804;8.330;2023-04-25T13:52:59;8.88;;;5.15;;
3549;SDS011;45572;48.804;8.330;2023-04-25T13:55:26;6.60;;;4.63;;
3549;SDS011;45572;48.804;8.330;2023-04-25T13:57:54;5.70;;;4.22;;
3549;SDS011;45572;48.804;8.330;2023-04-25T14:00:23;8.48;;;5.22;;
3549;SDS011;45572;48.804;8.330;2023-04-25T14:02:53;7.90;;;5.13;;
3549;SDS011;45572;48.804;8.330;2023-04-25T14:05:21;8.77;;;5.40;;
3549;SDS011;45572;48.804;8.330;2023-04-25T14:07:51;6.93;;;4.38;;
3549;SDS011;45572;48.804;8.330;2023-04-25T14:10:21;7.35;;;4.45;;
3549;SDS011;45572;48.804;8.330;2023-04-25T14:12:52;5.75;;;3.65;;
3549;SDS011;45572;48.804;8.330;2023-04-25T14:15:23;5.65;;;4.07;;
3549;SDS011;45572;48.804;8.330;2023-04-25T14:17:55;5.30;;;3.80;;
3549;SDS011;45572;48.804;8.330;2023-04-25T14:20:24;8.68;;;3.85;;
3549;SDS011;45572;48.804;8.330;2023-04-25T14:22:52;5.82;;;3.63;;
3549;SDS011;45572;48.804;8.330;2023-04-25T14:25:22;6.15;;;2.67;;
3549;SDS011;45572;48.804;8.330;2023-04-25T14:27:51;10.48;;;5.10;;
3549;SDS011;45572;48.804;8.330;2023-04-25T14:30:19;5.22;;;2.55;;
3549;SDS011;45572;48.804;8.330;2023-04-25T14:32:49;3.90;;;2.83;;
3549;SDS011;45572;48.804;8.330;2023-04-25T14:35:17;3.60;;;2.65;;
3549;SDS011;45572;48.804;8.330;2023-04-25T14:37:45;2.75;;;1.60;;
3549;SDS011;45572;48.804;8.330;2023-04-25T14:40:13;3.38;;;1.35;;
3549;SDS011;45572;48.804;8.330;2023-04-25T14:42:46;4.18;;;1.90;;
3549;SDS011;45572;48.804;8.330;2023-04-25T14:45:13;2.72;;;1.33;;
3549;SDS011;45572;48.804;8.330;2023-04-25T14:47:41;1.75;;;1.10;;
3549;SDS011;45572;48.804;8.330;2023-04-25T14:50:10;1.85;;;1.10;;
3549;SDS011;45572;48.804;8.330;2023-04-25T14:52:38;1.60;;;1.30;;
3549;SDS011;45572;48.804;8.330;2023-04-25T14:55:08;2.55;;;1.30;;
3549;SDS011;45572;48.804;8.330;2023-04-25T14:57:37;2.72;;;1.63;;
3549;SDS011;45572;48.804;8.330;2023-04-25T15:00:07;2.17;;;1.33;;
3549;SDS011;45572;48.804;8.330;2023-04-25T15:02:36;2.85;;;2.28;;
3549;SDS011;45572;48.804;8.330;2023-04-25T15:05:06;3.95;;;2.97;;
3549;SDS011;45572;48.804;8.330;2023-04-25T15:07:36;2.50;;;1.83;;
3549;SDS011;45572;48.804;8.330;2023-04-25T15:10:05;1.38;;;1.05;;
3549;SDS011;45572;48.804;8.330;2023-04-25T15:12:39;2.30;;;1.00;;
3549;SDS011;45572;48.804;8.330;2023-04-25T15:15:07;2.47;;;1.20;;
3549;SDS011;45572;48.804;8.330;2023-04-25T15:17:43;1.02;;;0.70;;
3549;SDS011;45572;48.804;8.330;2023-04-25T15:20:12;3.35;;;1.40;;
3549;SDS011;45572;48.804;8.330;2023-04-25T15:22:42;1.60;;;1.23;;
3549;SDS011;45572;48.804;8.330;2023-04-25T15:25:11;1.30;;;1.10;;
3549;SDS011;45572;48.804;8.330;2023-04-25T15:27:39;1.63;;;1.30;;
3549;SDS011;45572;48.804;8.330;2023-04-25T15:30:09;1.92;;;1.60;;